Time;durP1;ratioP1;P1;durP2;ratioP2;P2;SDS_P1;SDS_P2;PMS_P1;PMS_P2;Temp;Humidity;BMP_temperature;BMP_pressure;BME280_temperature;BME280_humidity;BME280_pressure;Samples;Min_cycle;Max_cycle;Signal;HPM_P1;HPM_P2
2022/08/11 00:00:19;;;;;;;7.32;2.40;;;24.10;53.30;;;;;;5054899;28;20053;-75
2022/08/11 00:02:49;;;;;;;4.75;1.60;;;24.10;54.00;;;;;;5070126;28;20064;-74
2022/08/11 00:05:16;;;;;;;;;;;24.10;53.90;;;;;;5050838;28;20021;-74
2022/08/11 00:07:53;;;;;;;6.32;1.50;;;24.10;54.10;;;;;;5045936;28;19912;-74
2022/08/11 00:10:25;;;;;;;3.72;1.52;;;24.00;54.10;;;;;;5070439;28;20032;-74
2022/08/11 00:12:57;;;;;;;4.05;1.90;;;24.00;53.50;;;;;;5069862;28;20087;-74
2022/08/11 00:15:25;;;;;;;4.60;2.03;;;23.90;53.10;;;;;;5070431;28;20027;-74
2022/08/11 00:18:01;;;;;;;4.15;1.58;;;23.90;53.20;;;;;;5070552;28;20025;-74
2022/08/11 00:20:37;;;;;;;5.35;1.60;;;23.80;53.80;;;;;;5070379;28;20031;-74
2022/08/11 00:23:08;;;;;;;5.70;1.52;;;23.80;53.90;;;;;;5068724;28;20044;-74
2022/08/11 00:25:46;;;;;;;5.82;1.60;;;23.80;54.70;;;;;;5064638;28;20074;-74
2022/08/11 00:28:33;;;;;;;4.97;1.60;;;23.70;54.00;;;;;;5069374;28;20028;-74
2022/08/11 00:31:03;;;;;;;4.88;1.88;;;23.70;55.10;;;;;;5070178;28;20016;-74
2022/08/11 00:33:37;;;;;;;4.32;1.90;;;23.70;54.10;;;;;;5069670;28;20379;-74
2022/08/11 00:36:04;;;;;;;4.85;1.75;;;23.70;54.80;;;;;;5069522;28;20541;-73
2022/08/11 00:38:35;;;;;;;4.32;1.48;;;23.70;54.20;;;;;;5067324;28;20112;-73
2022/08/11 00:41:22;;;;;;;9.80;2.13;;;23.60;54.50;;;;;;5067428;28;20028;-74
2022/08/11 00:44:30;;;;;;;3.80;2.00;;;23.60;54.30;;;;;;5060744;28;20047;-73
2022/08/11 00:47:11;;;;;;;5.25;1.85;;;23.60;54.80;;;;;;5067794;28;20055;-74
2022/08/11 00:50:02;;;;;;;5.25;1.50;;;23.60;55.30;;;;;;5067357;28;20546;-74
2022/08/11 00:52:31;;;;;;;5.05;1.40;;;23.60;55.10;;;;;;5068675;28;20020;-73
2022/08/11 00:55:32;;;;;;;4.22;1.65;;;23.50;55.40;;;;;;5066968;28;20550;-73
2022/08/11 00:58:17;;;;;;;6.13;1.95;;;23.50;55.30;;;;;;5048832;28;20028;-73
2022/08/11 01:01:15;;;;;;;3.90;1.63;;;23.40;55.20;;;;;;5067407;28;20025;-73
2022/08/11 01:04:19;;;;;;;5.53;1.98;;;23.40;54.80;;;;;;5048564;28;20048;-73
2022/08/11 01:07:04;;;;;;;4.10;1.83;;;23.40;54.90;;;;;;5067097;28;20119;-73
2022/08/11 01:09:49;;;;;;;3.50;1.80;;;23.40;54.90;;;;;;5064740;28;20408;-73
2022/08/11 01:12:39;;;;;;;3.85;1.45;;;23.30;55.40;;;;;;5051581;28;20032;-73
2022/08/11 01:15:47;;;;;;;8.23;1.52;;;23.20;55.80;;;;;;5068561;28;20024;-73
2022/08/11 01:18:43;;;;;;;6.47;2.00;;;23.20;56.40;;;;;;5068921;28;20028;-73
2022/08/11 01:21:15;;;;;;;4.40;1.40;;;23.20;56.40;;;;;;5048942;28;20057;-73
2022/08/11 01:24:25;;;;;;;4.07;1.40;;;23.10;56.60;;;;;;5055569;28;20049;-72
2022/08/11 01:27:22;;;;;;;3.15;1.48;;;23.00;57.00;;;;;;5068553;28;20051;-72
2022/08/11 01:30:15;;;;;;;3.80;1.55;;;23.00;56.90;;;;;;5068040;28;20495;-74
2022/08/11 01:33:11;;;;;;;4.50;1.70;;;22.90;56.60;;;;;;5068643;28;20071;-74
2022/08/11 01:35:52;;;;;;;6.78;2.17;;;22.90;56.70;;;;;;5068018;28;20379;-74
2022/08/11 01:38:41;;;;;;;5.75;1.80;;;22.90;56.70;;;;;;5065813;28;20055;-73
2022/08/11 01:41:22;;;;;;;4.57;1.50;;;22.90;57.10;;;;;;5054668;28;20122;-73
2022/08/11 01:50:37;;;;;;;3.13;1.40;;;22.70;57.10;;;;;;5067719;28;20035;-73
2022/08/11 01:53:14;;;;;;;5.28;1.90;;;22.70;57.30;;;;;;5050002;28;20056;-74
2022/08/11 01:56:17;;;;;;;3.40;1.73;;;22.60;57.60;;;;;;5068225;28;20032;-74
2022/08/11 01:59:04;;;;;;;4.47;1.65;;;22.60;58.10;;;;;;5067521;28;20104;-74
2022/08/11 02:02:08;;;;;;;4.95;1.73;;;22.50;57.40;;;;;;5050463;28;20150;-74
2022/08/11 02:04:58;;;;;;;4.70;1.95;;;22.50;57.90;;;;;;5068023;28;20044;-74
2022/08/11 02:07:51;;;;;;;;;;;22.50;57.90;;;;;;5068414;28;20086;-74
2022/08/11 02:13:20;;;;;;;4.57;1.65;;;22.40;57.80;;;;;;5052009;28;20036;-73
2022/08/11 02:15:51;;;;;;;4.95;2.15;;;22.30;58.30;;;;;;5068032;28;20025;-74
2022/08/11 02:23:38;;;;;;;5.20;1.50;;;22.30;58.60;;;;;;5067854;28;20033;-74
2022/08/11 02:24:40;;;;;;;2.72;1.27;;;22.20;58.60;;;;;;4985514;28;20116;-74
2022/08/11 02:27:13;;;;;;;4.70;1.80;;;22.20;58.40;;;;;;5025671;28;20107;-74
2022/08/11 02:29:54;;;;;;;4.82;2.10;;;22.10;58.50;;;;;;5059132;28;20078;-74
2022/08/11 02:35:35;;;;;;;3.67;1.30;;;22.10;58.30;;;;;;5068290;28;20406;-74
2022/08/11 02:38:25;;;;;;;6.18;2.15;;;22.10;58.70;;;;;;5061346;28;20013;-74
2022/08/11 02:40:58;;;;;;;7.50;2.17;;;22.10;58.90;;;;;;5067360;28;20020;-74
2022/08/11 02:43:40;;;;;;;6.65;2.00;;;22.00;58.90;;;;;;5049762;28;20044;-74
2022/08/11 02:46:35;;;;;;;5.80;1.67;;;22.00;59.60;;;;;;5067276;28;20690;-74
2022/08/11 02:52:02;;;;;;;4.15;1.70;;;22.00;59.40;;;;;;5071296;28;20552;-73
2022/08/11 02:54:41;;;;;;;6.00;1.48;;;22.00;59.40;;;;;;5051469;28;20075;-74
2022/08/11 02:57:33;;;;;;;4.78;1.70;;;22.00;59.60;;;;;;5051117;28;20507;-74
2022/08/11 03:00:06;;;;;;;5.38;1.73;;;22.00;59.50;;;;;;5069515;28;20024;-74
2022/08/11 03:03:01;;;;;;;4.47;2.20;;;22.00;59.50;;;;;;5070994;28;20055;-73
2022/08/11 03:05:48;;;;;;;5.60;2.17;;;21.90;59.20;;;;;;5070848;28;20020;-74
2022/08/11 03:09:05;;;;;;;4.88;1.65;;;21.90;59.60;;;;;;5070820;28;20103;-73
2022/08/11 03:17:37;;;;;;;6.65;1.80;;;21.80;59.90;;;;;;5071164;28;20031;-73
2022/08/11 03:20:27;;;;;;;7.90;1.60;;;21.80;59.80;;;;;;5070551;28;20024;-74
2022/08/11 03:23:05;;;;;;;;;;;21.80;60.10;;;;;;5063637;28;20067;-74
2022/08/11 03:26:00;;;;;;;10.02;2.35;;;21.80;60.10;;;;;;5051214;28;19905;-73
2022/08/11 03:28:46;;;;;;;4.85;1.80;;;21.80;59.80;;;;;;5056197;28;20483;-74
2022/08/11 03:31:23;;;;;;;8.02;2.33;;;21.70;59.40;;;;;;5053567;28;20056;-74
2022/08/11 03:34:06;;;;;;;6.25;2.42;;;21.70;59.50;;;;;;5070786;28;20051;-73
2022/08/11 03:36:45;;;;;;;6.13;2.17;;;21.70;59.70;;;;;;5070418;28;20035;-74
2022/08/11 03:39:33;;;;;;;4.22;1.65;;;21.70;59.60;;;;;;5070355;28;20499;-74
2022/08/11 03:42:42;;;;;;;4.43;1.60;;;21.70;59.60;;;;;;5069955;28;20031;-73
2022/08/11 03:45:32;;;;;;;6.30;2.00;;;21.60;60.00;;;;;;5069903;28;20659;-74
2022/08/11 03:48:09;;;;;;;7.40;2.85;;;21.60;60.30;;;;;;5052038;28;20029;-74
2022/08/11 03:51:12;;;;;;;5.30;1.88;;;21.60;59.90;;;;;;5070112;28;20542;-74
2022/08/11 03:54:25;;;;;;;4.05;1.90;;;21.60;60.30;;;;;;5063485;28;20041;-74
2022/08/11 03:56:59;;;;;;;7.82;2.72;;;21.60;60.40;;;;;;4978235;28;20035;-73
2022/08/11 03:59:34;;;;;;;7.55;1.85;;;21.60;60.00;;;;;;5030989;28;20063;-73
2022/08/11 04:02:37;;;;;;;4.55;2.40;;;21.60;60.20;;;;;;5050379;28;20029;-73
2022/08/11 04:05:33;;;;;;;4.28;1.90;;;21.50;60.20;;;;;;5069098;28;20024;-73
2022/08/11 04:08:17;;;;;;;5.63;2.17;;;21.50;60.50;;;;;;5069556;28;20429;-73
2022/08/11 04:11:16;;;;;;;5.70;2.33;;;21.40;60.20;;;;;;5051850;28;20033;-73
2022/08/11 04:17:42;;;;;;;5.82;2.05;;;21.40;60.20;;;;;;5070038;28;20090;-74
2022/08/11 04:20:32;;;;;;;3.47;1.80;;;21.40;60.10;;;;;;5069808;28;20055;-74
2022/08/11 04:23:41;;;;;;;5.45;2.38;;;21.40;60.20;;;;;;5060410;28;20049;-74
2022/08/11 04:26:24;;;;;;;7.65;2.42;;;21.40;61.20;;;;;;5037680;28;20036;-74
2022/08/11 04:29:24;;;;;;;6.78;2.42;;;21.40;60.50;;;;;;5069299;28;20391;-74
2022/08/11 04:32:18;;;;;;;4.43;2.05;;;21.30;60.50;;;;;;5070293;28;20017;-74
2022/08/11 04:34:50;;;;;;;5.43;1.65;;;21.30;60.80;;;;;;5050710;28;20024;-73
2022/08/11 04:37:45;;;;;;;4.88;1.60;;;21.30;60.40;;;;;;5066961;28;20016;-73
2022/08/11 04:40:54;;;;;;;7.05;2.10;;;21.40;60.70;;;;;;5067409;28;20017;-74
2022/08/11 04:43:37;;;;;;;6.78;2.15;;;21.30;60.60;;;;;;5065593;28;20040;-73
2022/08/11 04:46:17;;;;;;;5.57;2.47;;;21.40;60.10;;;;;;5065668;28;20120;-73
2022/08/11 05:01:46;;;;;;;8.23;2.20;;;21.40;59.50;;;;;;5048734;28;20179;-75
2022/08/11 05:07:19;;;;;;;4.50;2.63;;;21.40;59.20;;;;;;5068850;28;20040;-72
2022/08/11 05:09:57;;;;;;;7.13;2.78;;;21.50;59.10;;;;;;5069063;28;20031;-72
2022/08/11 05:12:54;;;;;;;4.65;2.08;;;21.50;59.00;;;;;;5069055;28;20082;-72
2022/08/11 05:36:50;;;;;;;5.75;2.42;;;22.00;57.90;;;;;;5068980;28;20548;-74
2022/08/11 05:56:17;;;;;;;5.75;2.35;;;22.60;56.50;;;;;;5068391;28;20051;-74
2022/08/11 05:58:50;;;;;;;5.43;1.88;;;22.60;56.30;;;;;;5068375;28;20592;-74
2022/08/11 06:01:29;;;;;;;4.45;2.08;;;22.70;55.80;;;;;;5049786;28;20016;-73
2022/08/11 06:04:15;;;;;;;4.95;2.38;;;22.80;56.00;;;;;;5068045;28;20064;-73
2022/08/11 06:06:55;;;;;;;6.40;2.45;;;22.90;55.90;;;;;;5048101;28;20024;-73
2022/08/11 06:09:28;;;;;;;6.53;2.28;;;23.00;56.30;;;;;;5048271;28;20037;-74
2022/08/11 06:11:59;;;;;;;6.28;2.60;;;23.00;55.70;;;;;;5046611;28;20368;-74
2022/08/11 06:14:26;;;;;;;4.50;2.55;;;23.10;55.30;;;;;;5048224;28;20394;-74
2022/08/11 06:16:56;;;;;;;5.60;1.95;;;23.30;54.90;;;;;;5064522;28;20910;-74
2022/08/11 06:19:28;;;;;;;;;;;23.40;54.80;;;;;;5067720;28;20036;-74
2022/08/11 06:21:54;;;;;;;5.57;1.80;;;23.50;54.40;;;;;;5049111;28;19917;-74
2022/08/11 06:24:20;;;;;;;4.43;2.13;;;23.60;53.90;;;;;;5070393;28;20327;-73
2022/08/11 06:26:49;;;;;;;4.13;2.05;;;23.70;53.90;;;;;;5071042;28;20017;-73
2022/08/11 06:29:17;;;;;;;8.38;2.55;;;23.80;52.80;;;;;;5070721;28;20668;-74
2022/08/11 06:31:54;;;;;;;6.35;2.20;;;23.80;53.20;;;;;;5068402;28;20021;-73
2022/08/11 06:34:59;;;;;;;5.30;1.70;;;23.90;53.70;;;;;;5067028;28;20021;-74
2022/08/11 06:37:58;;;;;;;3.78;1.85;;;24.00;53.00;;;;;;5068078;28;20053;-74
2022/08/11 06:40:29;;;;;;;5.53;1.58;;;24.10;52.40;;;;;;5070011;28;20525;-73
2022/08/11 06:43:04;;;;;;;4.57;2.45;;;24.20;52.80;;;;;;5071438;28;20029;-72
2022/08/11 06:45:56;;;;;;;5.90;1.50;;;24.30;52.50;;;;;;5071734;22;20021;-72
2022/08/11 06:48:24;;;;;;;5.00;1.75;;;24.50;52.70;;;;;;4986276;28;20732;-74
2022/08/11 06:51:11;;;;;;;5.75;1.67;;;24.60;51.10;;;;;;4966990;28;20077;-73
2022/08/11 06:54:11;;;;;;;4.50;1.80;;;24.60;50.30;;;;;;4972113;28;20109;-73
2022/08/11 07:02:21;;;;;;;3.88;1.52;;;24.60;51.50;;;;;;4982007;28;20041;-73
2022/08/11 07:04:55;;;;;;;4.63;1.40;;;24.80;51.30;;;;;;4973223;28;20137;-73
2022/08/11 07:16:49;;;;;;;3.03;1.48;;;25.70;50.20;;;;;;4975613;28;20041;-73
2022/08/11 07:30:41;;;;;;;2.70;1.25;;;26.30;48.80;;;;;;4986235;28;20037;-73
2022/08/11 07:33:09;;;;;;;3.08;1.65;;;26.40;48.50;;;;;;4992288;28;20023;-73
2022/08/11 07:35:44;;;;;;;3.40;1.50;;;26.50;48.40;;;;;;4990803;28;20074;-74
2022/08/11 07:38:23;;;;;;;4.13;1.73;;;26.60;48.00;;;;;;4968054;28;20374;-74
2022/08/11 07:40:49;;;;;;;4.68;1.90;;;26.70;47.60;;;;;;4972604;28;20462;-73
2022/08/11 07:43:15;;;;;;;4.00;1.60;;;26.80;46.90;;;;;;4974876;28;20552;-73
2022/08/11 07:54:04;;;;;;;3.53;1.85;;;26.90;46.70;;;;;;4978908;28;20049;-74
2022/08/11 07:56:37;;;;;;;4.60;1.95;;;27.00;47.10;;;;;;4977914;28;20026;-73
2022/08/11 08:18:26;;;;;;;4.78;1.83;;;28.20;44.60;;;;;;4980247;28;20041;-72
2022/08/11 08:20:53;;;;;;;5.07;2.33;;;28.30;44.90;;;;;;4980381;28;20466;-73
2022/08/11 08:23:33;;;;;;;7.40;2.13;;;28.20;44.00;;;;;;4980700;28;20089;-73
2022/08/11 08:26:02;;;;;;;3.47;1.80;;;28.20;44.50;;;;;;4981517;28;20028;-73
2022/08/11 08:28:28;;;;;;;6.72;1.90;;;28.20;45.30;;;;;;4981935;28;20552;-74
2022/08/11 08:30:55;;;;;;;3.10;1.83;;;28.20;44.20;;;;;;4979680;28;20121;-73
2022/08/11 08:33:24;;;;;;;5.78;2.45;;;28.30;43.90;;;;;;4981220;28;20030;-73
2022/08/11 08:36:10;;;;;;;6.75;1.90;;;28.40;42.70;;;;;;4981120;28;20077;-72
2022/08/11 08:38:56;;;;;;;3.17;1.35;;;28.40;44.70;;;;;;4963917;28;20142;-74
2022/08/11 08:41:26;;;;;;;5.93;2.35;;;28.70;46.40;;;;;;4977075;28;20035;-74
2022/08/11 08:43:56;;;;;;;3.90;1.73;;;28.90;44.40;;;;;;4976823;28;20401;-73
2022/08/11 08:46:29;;;;;;;5.50;2.53;;;29.10;43.90;;;;;;4977675;28;20236;-74
2022/08/11 08:48:58;;;;;;;3.25;1.80;;;29.20;42.60;;;;;;4981666;28;20075;-74
2022/08/11 08:51:34;;;;;;;3.63;1.95;;;29.10;42.70;;;;;;4964172;28;20117;-75
2022/08/11 08:54:11;;;;;;;4.88;1.88;;;29.20;42.40;;;;;;4964200;28;20399;-78
2022/08/11 08:56:39;;;;;;;2.97;1.52;;;29.20;44.20;;;;;;4978431;28;20022;-75
2022/08/11 08:59:06;;;;;;;4.18;1.95;;;29.40;45.50;;;;;;4979406;28;20050;-74
2022/08/11 09:02:06;;;;;;;4.20;1.83;;;29.50;44.00;;;;;;4981377;28;20030;-76
2022/08/11 09:04:33;;;;;;;4.53;2.03;;;29.70;43.10;;;;;;4961595;28;20069;-76
2022/08/11 09:07:06;;;;;;;5.38;1.75;;;29.80;41.40;;;;;;4976287;28;20030;-74
2022/08/11 09:09:32;;;;;;;4.97;2.03;;;29.80;41.60;;;;;;4980224;28;20030;-74
2022/08/11 09:11:59;;;;;;;3.67;1.77;;;29.80;42.10;;;;;;4981995;28;20034;-75
2022/08/11 09:17:18;;;;;;;4.50;2.03;;;30.10;42.10;;;;;;4977663;28;20120;-74
2022/08/11 09:19:48;;;;;;;5.20;1.83;;;30.10;42.20;;;;;;4979807;28;20037;-75
2022/08/11 09:27:55;;;;;;;3.67;1.58;;;30.70;46.40;;;;;;4979041;28;20037;-74
2022/08/11 09:30:24;;;;;;;3.72;2.25;;;31.00;44.90;;;;;;4959381;28;20452;-72
2022/08/11 09:32:56;;;;;;;4.15;1.98;;;31.00;39.50;;;;;;4974363;28;20030;-75
2022/08/11 09:35:37;;;;;;;4.78;1.73;;;31.00;40.20;;;;;;4955758;28;20030;-74
2022/08/11 09:40:50;;;;;;;4.50;1.98;;;31.00;41.00;;;;;;4972409;28;20049;-75
2022/08/11 09:46:03;;;;;;;4.95;1.77;;;31.10;42.70;;;;;;4976623;28;21424;-73
2022/08/11 09:48:34;;;;;;;4.95;1.88;;;31.20;43.30;;;;;;4977187;28;20034;-74
2022/08/11 09:51:01;;;;;;;4.63;2.10;;;31.30;42.10;;;;;;4972172;28;20158;-75
2022/08/11 09:53:31;;;;;;;4.22;1.80;;;31.40;39.50;;;;;;4974349;28;20031;-75
2022/08/11 09:55:58;;;;;;;4.75;1.95;;;31.50;39.90;;;;;;4971087;28;20027;-74
2022/08/11 09:58:23;;;;;;;4.65;1.98;;;31.70;40.10;;;;;;4962293;28;20019;-75
2022/08/11 10:00:50;;;;;;;5.53;2.10;;;31.90;44.30;;;;;;4973758;28;20034;-73
2022/08/11 10:03:21;;;;;;;4.03;1.63;;;32.10;46.80;;;;;;4977721;28;20034;-73
2022/08/11 10:08:46;;;;;;;4.68;1.88;;;32.30;42.50;;;;;;4976585;28;20120;-74
2022/08/11 10:11:15;;;;;;;6.05;2.28;;;32.30;42.30;;;;;;4978124;28;20089;-75
2022/08/11 10:16:34;;;;;;;4.55;2.10;;;32.20;37.80;;;;;;4981230;28;20030;-76
2022/08/11 10:19:02;;;;;;;5.40;2.00;;;32.20;39.40;;;;;;4979593;28;20026;-77
2022/08/11 10:26:48;;;;;;;4.53;2.33;;;32.50;41.40;;;;;;4981545;28;20017;-81
2022/08/11 10:27:17;;;;;;;3.85;1.83;;;32.90;42.10;;;;;;4979467;28;20089;-76
2022/08/11 10:35:16;;;;;;;5.03;1.98;;;33.00;45.00;;;;;;4992007;28;20092;-76
2022/08/11 10:37:44;;;;;;;3.50;1.80;;;33.10;38.20;;;;;;4973274;28;20061;-76
2022/08/11 10:40:14;;;;;;;2.58;1.58;;;33.10;37.90;;;;;;4972958;28;20122;-76
2022/08/11 10:48:11;;;;;;;3.45;1.83;;;33.80;42.90;;;;;;4980012;28;20044;-76
2022/08/11 10:58:55;;;;;;;3.92;2.15;;;33.90;36.50;;;;;;4990592;28;20481;-76
2022/08/11 11:01:25;;;;;;;5.10;1.80;;;33.90;35.50;;;;;;4974842;28;20029;-76
2022/08/11 11:04:21;;;;;;;4.20;1.55;;;33.80;33.90;;;;;;4991469;28;20068;-77
2022/08/11 11:06:56;;;;;;;5.22;1.95;;;33.80;45.30;;;;;;4992297;28;20039;-79
2022/08/11 11:09:31;;;;;;;2.88;1.73;;;33.90;35.60;;;;;;4980507;28;20034;-78
2022/08/11 11:18:00;;;;;;;3.70;1.92;;;34.30;42.70;;;;;;4997078;28;19941;-76
2022/08/11 11:20:48;;;;;;;3.20;1.70;;;34.40;37.70;;;;;;5001184;28;20082;-77
2022/08/11 11:23:17;;;;;;;5.28;2.17;;;34.50;39.20;;;;;;4997452;28;20034;-77
2022/08/11 11:26:08;;;;;;;3.33;1.60;;;34.70;34.00;;;;;;4998731;28;20113;-75
2022/08/11 11:29:11;;;;;;;4.38;1.75;;;34.80;35.10;;;;;;4994715;28;20137;-76
2022/08/11 11:32:13;;;;;;;4.82;1.67;;;34.90;38.00;;;;;;4993529;28;20034;-76
2022/08/11 11:35:07;;;;;;;3.63;1.25;;;35.00;36.30;;;;;;4999010;28;20101;-77
2022/08/11 11:37:34;;;;;;;5.30;2.03;;;34.90;31.20;;;;;;4961079;28;20037;-75
2022/08/11 11:40:09;;;;;;;6.88;1.92;;;34.90;36.70;;;;;;4980213;28;20037;-77
2022/08/11 11:42:35;;;;;;;7.28;2.00;;;34.90;30.90;;;;;;4978636;28;20030;-76
2022/08/11 11:45:02;;;;;;;3.15;1.67;;;34.90;30.80;;;;;;4976671;28;20031;-79
2022/08/11 11:47:29;;;;;;;4.43;1.88;;;35.10;30.10;;;;;;4973049;28;20054;-76
2022/08/11 11:49:55;;;;;;;4.78;1.98;;;35.10;33.60;;;;;;4977296;28;20023;-76
2022/08/11 11:52:22;;;;;;;4.13;1.67;;;35.10;31.30;;;;;;4975868;28;20030;-76
2022/08/11 11:54:54;;;;;;;5.55;1.85;;;35.20;32.60;;;;;;4992545;28;20033;-76
2022/08/11 12:02:57;;;;;;;6.13;2.30;;;35.50;42.40;;;;;;4992561;28;20049;-76
2022/08/11 12:05:23;;;;;;;3.13;1.73;;;35.50;34.00;;;;;;4992544;28;20124;-73
2022/08/11 12:08:10;;;;;;;4.70;1.85;;;35.60;34.80;;;;;;4993003;28;20026;-75
2022/08/11 12:10:44;;;;;;;4.53;1.80;;;35.70;44.00;;;;;;4989618;28;20082;-76
2022/08/11 12:15:56;;;;;;;4.68;1.55;;;35.70;37.80;;;;;;4973335;28;20038;-75
2022/08/11 12:18:23;;;;;;;6.55;1.90;;;35.80;31.40;;;;;;4973786;28;20018;-76
2022/08/11 12:20:49;;;;;;;3.55;1.60;;;36.00;39.10;;;;;;4984566;28;20488;-74
2022/08/11 12:28:45;;;;;;;4.38;1.75;;;36.30;37.30;;;;;;4992194;28;20093;-74
2022/08/11 12:31:11;;;;;;;2.92;1.48;;;36.30;30.00;;;;;;4991904;28;20026;-75
2022/08/11 12:33:39;;;;;;;3.22;1.77;;;36.10;31.60;;;;;;4992030;28;20030;-74
2022/08/11 12:36:08;;;;;;;5.45;1.90;;;36.10;34.30;;;;;;4985377;28;20069;-74
2022/08/11 12:38:35;;;;;;;3.40;1.55;;;36.10;32.80;;;;;;4986247;28;20454;-74
2022/08/11 12:46:37;;;;;;;5.45;1.60;;;36.50;33.80;;;;;;4993543;28;20512;-75
2022/08/11 12:52:07;;;;;;;4.15;1.52;;;36.50;32.80;;;;;;4992282;28;20053;-75
2022/08/11 12:54:39;;;;;;;4.43;1.50;;;36.50;31.40;;;;;;4991563;28;20027;-74
2022/08/11 13:05:40;;;;;;;4.47;1.75;;;36.50;39.80;;;;;;4995686;28;20106;-76
2022/08/11 13:08:07;;;;;;;3.42;1.20;;;36.70;36.00;;;;;;4984330;28;20034;-76
2022/08/11 13:13:21;;;;;;;3.00;1.48;;;37.00;29.90;;;;;;4971954;28;20169;-77
2022/08/11 13:15:48;;;;;;;4.95;1.63;;;37.00;28.90;;;;;;4954124;28;20031;-77
2022/08/11 13:18:21;;;;;;;3.70;1.65;;;37.00;27.90;;;;;;4976449;28;20026;-75
2022/08/11 13:20:52;;;;;;;2.67;1.20;;;36.90;33.90;;;;;;4976989;28;20023;-77
2022/08/11 13:23:18;;;;;;;6.55;1.55;;;36.80;37.20;;;;;;4979920;28;20037;-78
2022/08/11 13:25:47;;;;;;;4.72;1.60;;;36.90;41.40;;;;;;4977526;28;20027;-78
2022/08/11 13:28:15;;;;;;;3.67;1.63;;;37.00;42.60;;;;;;4978087;28;20026;-78
2022/08/11 13:33:26;;;;;;;1.63;1.27;;;37.00;33.10;;;;;;4975482;28;20045;-77
2022/08/11 13:35:54;;;;;;;6.07;1.98;;;36.90;31.50;;;;;;4957424;28;20111;-79
2022/08/11 13:38:22;;;;;;;4.07;1.52;;;36.60;27.80;;;;;;4973970;28;20042;-76
2022/08/11 13:40:53;;;;;;;5.47;1.90;;;36.50;29.20;;;;;;4990417;28;20081;-78
2022/08/11 13:43:20;;;;;;;3.13;1.60;;;36.40;28.70;;;;;;5014886;28;20448;-78
2022/08/11 13:45:47;;;;;;;5.38;1.70;;;36.30;35.20;;;;;;5000217;28;20052;-79
2022/08/11 13:48:14;;;;;;;3.85;1.20;;;36.20;28.50;;;;;;4996956;28;20023;-78
2022/08/11 13:53:28;;;;;;;3.10;1.85;;;36.40;37.40;;;;;;4994134;28;20135;-77
2022/08/11 13:55:54;;;;;;;3.60;1.65;;;36.40;29.80;;;;;;5000225;28;20041;-77
2022/08/11 13:58:22;;;;;;;5.05;1.67;;;36.40;28.50;;;;;;4983368;28;20031;-77
2022/08/11 14:00:51;;;;;;;4.65;1.70;;;36.60;43.20;;;;;;5000348;28;20018;-76
2022/08/11 14:03:22;;;;;;;6.33;1.70;;;36.60;30.00;;;;;;4982264;28;20038;-75
2022/08/11 14:05:51;;;;;;;2.88;1.52;;;36.60;34.40;;;;;;4996846;28;20105;-77
2022/08/11 14:08:23;;;;;;;2.72;1.60;;;36.60;30.00;;;;;;4996695;28;20026;-77
2022/08/11 14:13:36;;;;;;;2.83;1.50;;;36.80;27.90;;;;;;4977165;28;20025;-76
2022/08/11 14:13:42;;;;;;;4.90;1.80;;;37.00;29.60;;;;;;4976128;28;20042;-76
2022/08/11 14:16:17;;;;;;;2.92;1.60;;;36.90;28.20;;;;;;4959818;28;20054;-76
2022/08/11 14:18:46;;;;;;;6.38;1.90;;;36.60;35.50;;;;;;4979318;28;20027;-77
2022/08/11 14:24:02;;;;;;;4.50;1.70;;;36.40;34.10;;;;;;4975338;28;20106;-75
2022/08/11 14:26:30;;;;;;;5.65;2.08;;;36.30;28.60;;;;;;4997458;28;20015;-77
2022/08/11 14:29:24;;;;;;;3.28;1.60;;;36.30;30.20;;;;;;4999498;28;20689;-77
2022/08/11 14:31:52;;;;;;;6.13;1.50;;;36.10;30.00;;;;;;4999613;28;20057;-76
2022/08/11 14:34:20;;;;;;;2.88;1.33;;;36.10;29.60;;;;;;4997915;28;20034;-76
2022/08/11 14:36:55;;;;;;;2.60;1.40;;;36.20;43.50;;;;;;4997119;28;20065;-77
2022/08/11 14:39:25;;;;;;;5.03;1.85;;;36.40;36.30;;;;;;4996901;28;20022;-76
2022/08/11 14:47:42;;;;;;;4.15;1.70;;;36.40;32.50;;;;;;5002963;28;20460;-76
2022/08/11 14:50:16;;;;;;;3.88;1.95;;;36.40;36.70;;;;;;4980943;28;20038;-77
2022/08/11 14:52:47;;;;;;;6.20;2.15;;;36.30;35.30;;;;;;4998437;28;20022;-76
2022/08/11 14:57:59;;;;;;;4.05;1.70;;;35.90;31.20;;;;;;5000466;28;20038;-77
2022/08/11 15:00:25;;;;;;;3.38;1.45;;;35.90;29.80;;;;;;4997614;28;20030;-77
2022/08/11 15:03:10;;;;;;;3.63;1.60;;;35.90;36.90;;;;;;4995444;28;20121;-76
2022/08/11 15:05:46;;;;;;;4.60;1.85;;;36.00;38.30;;;;;;4998508;28;20026;-76
2022/08/11 15:08:14;;;;;;;3.38;1.50;;;36.10;32.10;;;;;;4995242;28;20030;-76
2022/08/11 15:10:41;;;;;;;4.45;1.63;;;36.00;33.30;;;;;;4996119;28;20053;-77
2022/08/11 15:13:09;;;;;;;4.30;1.77;;;36.10;39.50;;;;;;4984279;28;20095;-78
2022/08/11 15:18:24;;;;;;;3.17;1.45;;;36.00;32.00;;;;;;4982222;28;20572;-76
2022/08/11 15:37:53;;;;;;;3.47;1.30;;;36.00;30.90;;;;;;4972753;28;20386;-75
2022/08/11 15:46:33;;;;;;;2.63;1.05;;;35.90;31.00;;;;;;4976306;28;20624;-74
2022/08/11 15:49:11;;;;;;;3.15;1.30;;;35.80;36.10;;;;;;4974906;28;20429;-74
2022/08/11 15:51:41;;;;;;;3.63;1.40;;;35.70;41.10;;;;;;4980143;28;20798;-73
2022/08/11 15:54:14;;;;;;;3.28;1.55;;;35.70;40.50;;;;;;4978326;28;20180;-74
2022/08/11 15:56:43;;;;;;;4.57;1.55;;;35.60;36.30;;;;;;4974021;28;20084;-74
2022/08/11 16:04:46;;;;;;;4.28;1.40;;;35.50;39.60;;;;;;4979778;28;20065;-74
2022/08/11 16:07:14;;;;;;;4.13;1.90;;;35.40;34.40;;;;;;4978677;28;20053;-74
2022/08/11 16:09:51;;;;;;;2.22;1.48;;;35.40;32.60;;;;;;4976855;28;20030;-74
2022/08/11 16:12:21;;;;;;;2.53;1.40;;;35.40;42.60;;;;;;4979580;28;20643;-73
2022/08/11 16:17:40;;;;;;;2.72;1.42;;;35.30;36.10;;;;;;4978859;28;20136;-74
2022/08/11 16:20:08;;;;;;;4.50;1.40;;;35.20;34.00;;;;;;4975328;28;20030;-73
2022/08/11 16:22:37;;;;;;;4.10;1.27;;;35.20;39.70;;;;;;4978283;28;20030;-74
2022/08/11 16:25:06;;;;;;;3.58;1.52;;;35.20;44.60;;;;;;4979285;28;20084;-75
2022/08/11 16:27:37;;;;;;;2.63;1.40;;;35.20;38.60;;;;;;4979271;28;20704;-74
2022/08/11 16:30:04;;;;;;;3.45;1.60;;;35.30;37.30;;;;;;4989550;28;20037;-75
2022/08/11 16:32:32;;;;;;;3.80;1.63;;;35.20;40.70;;;;;;4991354;28;20433;-74
2022/08/11 16:40:37;;;;;;;4.10;1.33;;;34.80;38.00;;;;;;4991337;28;20548;-75
2022/08/11 16:48:38;;;;;;;4.05;1.52;;;34.60;42.20;;;;;;4978523;28;20521;-73
2022/08/11 16:51:05;;;;;;;2.47;1.55;;;34.60;42.40;;;;;;4980936;28;20477;-74
2022/08/11 16:53:31;;;;;;;3.92;1.52;;;34.70;39.20;;;;;;4991189;28;20030;-74
2022/08/11 16:56:02;;;;;;;4.32;1.70;;;34.60;39.10;;;;;;4991034;28;20515;-73
2022/08/11 17:01:19;;;;;;;3.30;1.40;;;34.60;41.50;;;;;;4990887;28;20093;-73
2022/08/11 17:16:05;;;;;;;4.00;1.55;;;34.10;43.60;;;;;;4978887;28;20099;-74
2022/08/11 17:17:56;;;;;;;4.13;1.40;;;34.00;42.60;;;;;;4979110;28;20023;-74
2022/08/11 17:20:24;;;;;;;2.83;1.42;;;34.00;42.60;;;;;;4978059;28;20073;-74
2022/08/11 17:25:37;;;;;;;4.82;1.70;;;33.80;42.80;;;;;;4987008;28;20041;-74
2022/08/11 17:28:04;;;;;;;2.67;1.40;;;33.80;43.60;;;;;;4979634;28;20026;-73
2022/08/11 17:36:03;;;;;;;3.30;1.40;;;33.50;40.30;;;;;;4979424;28;20033;-73
2022/08/11 17:38:32;;;;;;;3.35;1.42;;;33.30;38.90;;;;;;4982653;28;20022;-73
2022/08/11 17:49:20;;;;;;;2.67;1.20;;;33.00;44.20;;;;;;4971262;28;20058;-73
2022/08/11 18:00:06;;;;;;;3.03;1.40;;;32.70;43.70;;;;;;4988873;28;20111;-72
2022/08/11 18:05:36;;;;;;;3.92;1.30;;;32.50;45.00;;;;;;4953868;28;20066;-74
